Time;durP1;ratioP1;P1;durP2;ratioP2;P2;SDS_P1;SDS_P2;PMS_P1;PMS_P2;Temp;Humidity;BMP_temperature;BMP_pressure;BME280_temperature;BME280_humidity;BME280_pressure;Samples;Min_cycle;Max_cycle;Signal;HPM_P1;HPM_P2
2022/05/08 00:03:58;;;;;;;9.43;6.57;;;7.80;99.90;;;;;;8329125;28;20202;-80
2022/05/08 00:07:59;;;;;;;9.70;7.00;;;7.80;99.90;;;;;;8322665;28;20239;-78
2022/05/08 00:12:00;;;;;;;10.10;7.60;;;7.70;99.90;;;;;;8317718;28;20229;-80
2022/05/08 00:16:01;;;;;;;9.17;7.03;;;7.70;99.90;;;;;;8322351;28;20182;-80
2022/05/08 00:20:06;;;;;;;8.60;7.03;;;7.60;99.90;;;;;;8322125;28;20190;-80
2022/05/08 00:24:07;;;;;;;12.13;7.40;;;7.60;99.90;;;;;;8333500;28;20213;-80
2022/05/08 00:28:07;;;;;;;9.03;7.07;;;7.70;99.90;;;;;;8329235;28;20209;-80
2022/05/08 00:32:09;;;;;;;11.73;7.70;;;7.70;99.90;;;;;;8342626;28;20179;-79
2022/05/08 00:36:09;;;;;;;10.33;7.77;;;7.70;99.90;;;;;;8330454;28;20185;-79
2022/05/08 00:40:10;;;;;;;10.70;7.77;;;7.70;99.90;;;;;;8326356;28;20202;-80
2022/05/08 00:44:13;;;;;;;12.90;8.37;;;7.70;99.90;;;;;;8321866;28;20189;-81
2022/05/08 00:48:13;;;;;;;11.90;8.63;;;7.80;99.90;;;;;;8322228;28;20209;-80
2022/05/08 00:52:16;;;;;;;13.63;9.00;;;7.60;99.90;;;;;;8322734;28;20187;-81
2022/05/08 00:56:18;;;;;;;10.77;8.13;;;7.50;99.90;;;;;;8318790;28;20190;-80
2022/05/08 01:00:19;;;;;;;11.73;8.17;;;7.50;99.90;;;;;;8327595;28;20202;-78
2022/05/08 01:04:19;;;;;;;11.93;8.07;;;7.50;99.90;;;;;;8320038;28;20189;-80
2022/05/08 01:08:25;;;;;;;11.23;7.87;;;7.40;99.90;;;;;;8326943;28;20181;-78
2022/05/08 01:12:26;;;;;;;10.43;7.37;;;7.30;99.90;;;;;;8334366;28;20257;-80
2022/05/08 01:16:27;;;;;;;12.77;7.70;;;7.30;99.90;;;;;;8330097;28;20194;-79
2022/05/08 01:20:29;;;;;;;12.67;8.50;;;7.30;99.90;;;;;;8320000;28;20271;-79
2022/05/08 01:24:29;;;;;;;11.80;8.57;;;7.40;99.90;;;;;;8332139;28;20190;-79
2022/05/08 01:28:30;;;;;;;10.97;7.87;;;7.40;99.90;;;;;;8322238;28;20178;-78
2022/05/08 01:32:31;;;;;;;12.17;8.23;;;7.40;99.90;;;;;;8319425;28;20281;-78
2022/05/08 01:36:32;;;;;;;11.07;8.47;;;7.50;99.90;;;;;;8327943;28;20182;-81
2022/05/08 01:40:33;;;;;;;10.13;8.33;;;7.50;99.90;;;;;;8323363;28;20275;-80
2022/05/08 01:44:37;;;;;;;11.53;7.83;;;7.50;99.90;;;;;;8320201;28;20181;-79
2022/05/08 01:48:38;;;;;;;9.87;7.40;;;7.60;99.90;;;;;;8326578;28;20198;-80
2022/05/08 01:52:39;;;;;;;10.90;7.93;;;7.60;99.90;;;;;;8323365;28;20205;-79
2022/05/08 01:56:40;;;;;;;12.23;7.97;;;7.70;99.90;;;;;;8334036;28;20182;-80
2022/05/08 02:00:41;;;;;;;10.10;7.83;;;7.80;99.90;;;;;;8319390;28;20269;-80
2022/05/08 02:04:41;;;;;;;12.53;7.77;;;7.90;99.90;;;;;;8329033;28;20202;-80
2022/05/08 02:08:42;;;;;;;10.47;7.23;;;8.00;99.90;;;;;;8337017;28;20175;-80
2022/05/08 02:12:44;;;;;;;11.97;7.67;;;8.00;99.90;;;;;;8329238;28;20198;-80
2022/05/08 02:16:45;;;;;;;14.10;8.93;;;8.00;1.00;;;;;;8329436;28;20190;-78
2022/05/08 02:20:46;;;;;;;13.33;8.83;;;7.90;1.00;;;;;;8330669;28;20186;-79
2022/05/08 02:24:47;;;;;;;14.20;9.87;;;7.80;99.90;;;;;;8326990;28;20296;-80
2022/05/08 02:28:48;;;;;;;16.30;10.40;;;7.90;99.90;;;;;;8332999;28;20194;-79
2022/05/08 02:32:53;;;;;;;18.43;11.83;;;8.00;99.90;;;;;;8331450;28;20193;-79
2022/05/08 02:36:54;;;;;;;14.77;9.90;;;8.10;99.90;;;;;;8341570;28;20193;-80
2022/05/08 02:40:55;;;;;;;11.50;8.73;;;8.20;99.90;;;;;;8332421;28;20206;-80
2022/05/08 02:44:56;;;;;;;11.43;8.57;;;8.20;99.90;;;;;;8324226;28;20210;-80
2022/05/08 02:48:57;;;;;;;10.47;8.27;;;8.20;99.90;;;;;;8319400;28;20206;-80
2022/05/08 02:52:58;;;;;;;10.97;8.37;;;8.20;99.90;;;;;;8326491;28;20178;-79
2022/05/08 03:01:18;;;;;;;13.50;9.70;;;8.30;99.90;;;;;;8342264;28;20186;-78
2022/05/08 03:05:19;;;;;;;16.23;11.00;;;8.40;99.90;;;;;;8325476;28;20202;-80
2022/05/08 03:09:20;;;;;;;13.83;10.10;;;8.50;99.90;;;;;;8319554;28;20304;-80
2022/05/08 03:13:21;;;;;;;13.40;9.47;;;8.60;99.90;;;;;;8325751;28;20185;-79
2022/05/08 03:17:22;;;;;;;11.30;8.70;;;8.60;99.90;;;;;;8327212;28;20178;-80
2022/05/08 03:21:24;;;;;;;10.10;7.77;;;8.60;99.90;;;;;;8325422;28;20186;-80
2022/05/08 03:25:25;;;;;;;10.50;8.63;;;8.60;99.90;;;;;;8330014;28;20211;-81
2022/05/08 03:29:26;;;;;;;11.53;7.80;;;8.70;99.90;;;;;;8333629;28;20272;-80
2022/05/08 03:33:27;;;;;;;13.93;9.70;;;8.70;99.90;;;;;;8324717;28;20249;-80
2022/05/08 03:37:29;;;;;;;12.30;9.87;;;8.80;99.90;;;;;;8343326;28;20192;-77
2022/05/08 03:41:29;;;;;;;13.33;9.93;;;8.90;14.70;;;;;;8322876;28;20214;-77
2022/05/08 03:45:30;;;;;;;14.63;10.70;;;9.10;99.90;;;;;;8329747;28;20234;-77
2022/05/08 03:49:31;;;;;;;11.70;9.23;;;9.20;99.90;;;;;;8331262;28;20197;-77
2022/05/08 03:53:32;;;;;;;12.80;7.73;;;9.30;1.00;;;;;;8325345;28;20209;-77
2022/05/08 03:57:33;;;;;;;10.87;8.67;;;9.50;1.00;;;;;;8326560;28;20186;-82
2022/05/08 04:01:34;;;;;;;16.30;10.63;;;9.70;99.90;;;;;;8342852;28;20256;-76
2022/05/08 04:05:34;;;;;;;11.00;8.37;;;9.90;99.90;;;;;;8325885;28;20206;-79
2022/05/08 04:09:35;;;;;;;11.40;9.37;;;10.00;1.00;;;;;;8331761;28;20179;-77
2022/05/08 04:13:36;;;;;;;10.50;8.53;;;10.70;1.00;;;;;;8331785;28;20185;-79
2022/05/08 04:17:37;;;;;;;9.80;7.87;;;11.60;99.90;;;;;;8340858;28;20186;-82
2022/05/08 04:21:38;;;;;;;10.53;8.33;;;12.60;99.90;;;;;;8327576;28;20188;-78
2022/05/08 04:25:39;;;;;;;8.23;7.23;;;13.30;99.90;;;;;;8326119;28;20276;-78
2022/05/08 04:29:40;;;;;;;9.23;7.23;;;14.00;1.00;;;;;;8330022;28;20193;-78
2022/05/08 04:33:41;;;;;;;12.00;7.67;;;14.50;99.90;;;;;;8328488;28;20246;-78
2022/05/08 04:37:41;;;;;;;9.10;7.50;;;14.90;99.90;;;;;;8332698;28;20186;-78
2022/05/08 04:41:42;;;;;;;11.27;6.70;;;15.10;42.20;;;;;;8331482;28;20222;-77
2022/05/08 04:45:43;;;;;;;9.00;6.67;;;15.40;9.30;;;;;;8323043;28;20280;-78
2022/05/08 04:49:44;;;;;;;9.07;7.20;;;15.80;1.00;;;;;;8326018;28;20233;-79
2022/05/08 04:53:45;;;;;;;8.43;6.90;;;16.10;1.00;;;;;;8343080;28;20491;-79
2022/05/08 04:57:46;;;;;;;10.43;7.10;;;16.30;1.00;;;;;;8337683;28;20185;-78
2022/05/08 05:01:46;;;;;;;7.70;6.67;;;16.20;1.00;;;;;;8323850;28;20190;-78
2022/05/08 05:05:47;;;;;;;9.70;7.83;;;16.00;1.00;;;;;;8326273;28;20237;-81
2022/05/08 05:09:48;;;;;;;8.87;7.30;;;15.80;1.00;;;;;;8321414;28;20266;-81
2022/05/08 05:13:49;;;;;;;8.97;7.03;;;15.50;1.00;;;;;;8324756;28;20201;-77
2022/05/08 05:17:52;;;;;;;8.80;7.00;;;15.40;77.50;;;;;;8323126;28;20229;-77
2022/05/08 05:21:52;;;;;;;8.53;7.57;;;15.60;99.90;;;;;;8341738;28;20181;-77
2022/05/08 05:25:53;;;;;;;8.07;7.27;;;15.70;99.90;;;;;;8333091;28;20347;-81
2022/05/08 05:29:54;;;;;;;8.10;7.17;;;15.90;99.90;;;;;;8328217;28;20183;-77
2022/05/08 05:33:55;;;;;;;9.97;7.80;;;15.80;99.90;;;;;;8320762;28;20181;-81
2022/05/08 05:37:56;;;;;;;9.20;7.60;;;15.60;25.80;;;;;;8325698;28;20178;-80
2022/05/08 05:41:57;;;;;;;9.97;7.57;;;15.90;83.50;;;;;;8327091;28;20209;-78
2022/05/08 05:50:17;;;;;;;9.70;7.27;;;16.70;1.00;;;;;;8342332;28;20190;-78
2022/05/08 05:54:21;;;;;;;10.90;7.93;;;16.80;1.00;;;;;;8334065;28;20189;-81
2022/05/08 05:58:22;;;;;;;9.83;7.53;;;16.70;1.00;;;;;;8334059;28;20186;-77
2022/05/08 06:02:23;;;;;;;9.77;7.37;;;16.40;1.00;;;;;;8333647;28;20228;-78
2022/05/08 06:06:23;;;;;;;11.17;7.53;;;16.40;1.00;;;;;;8346646;28;20210;-79
2022/05/08 06:10:24;;;;;;;7.87;7.07;;;16.50;1.00;;;;;;8332740;28;20182;-82
2022/05/08 06:14:25;;;;;;;10.73;7.80;;;16.70;1.00;;;;;;8336396;28;20247;-80
2022/05/08 06:18:26;;;;;;;9.80;7.00;;;16.90;1.00;;;;;;8326600;28;20178;-78
2022/05/08 06:22:27;;;;;;;8.10;7.30;;;17.10;1.00;;;;;;8332581;28;20240;-82
2022/05/08 06:26:28;;;;;;;10.70;7.90;;;17.00;1.00;;;;;;8331359;28;20212;-81
2022/05/08 06:30:29;;;;;;;7.73;6.47;;;16.60;1.00;;;;;;8341722;28;20186;-79
2022/05/08 06:34:30;;;;;;;7.47;6.50;;;16.90;1.00;;;;;;8328948;28;20185;-82
2022/05/08 06:38:30;;;;;;;7.83;7.00;;;17.20;1.00;;;;;;8348781;28;20244;-79
2022/05/08 06:42:32;;;;;;;8.97;6.83;;;17.40;1.00;;;;;;8328925;28;20179;-81
2022/05/08 06:46:35;;;;;;;8.40;6.30;;;17.20;1.00;;;;;;8321266;28;20220;-77
2022/05/08 06:50:36;;;;;;;7.93;6.77;;;17.20;1.00;;;;;;8327929;28;20182;-78
2022/05/08 06:54:37;;;;;;;12.27;6.60;;;17.40;1.00;;;;;;8331563;28;20209;-78
2022/05/08 07:01:34;;;;;;;8.40;7.17;;;17.60;1.00;;;;;;8332238;28;20182;-82
2022/05/08 07:03:01;;;;;;;8.37;7.13;;;17.70;1.00;;;;;;8349052;28;20174;-77
2022/05/08 07:07:02;;;;;;;9.10;6.97;;;17.70;1.00;;;;;;8336996;28;20613;-78
2022/05/08 07:11:03;;;;;;;9.93;6.63;;;17.60;1.00;;;;;;8329187;28;20178;-79
2022/05/08 07:15:05;;;;;;;7.93;6.63;;;17.80;1.00;;;;;;8327721;28;20236;-78
2022/05/08 07:19:06;;;;;;;6.73;5.97;;;18.10;99.90;;;;;;8329274;28;20189;-81
2022/05/08 07:23:07;;;;;;;7.80;6.20;;;18.00;99.90;;;;;;8348197;28;20185;-78
2022/05/08 07:27:11;;;;;;;7.17;5.87;;;17.90;99.90;;;;;;8324987;28;20217;-76
2022/05/08 07:31:12;;;;;;;7.37;6.00;;;17.80;1.00;;;;;;8326148;28;20182;-81
2022/05/08 07:39:32;;;;;;;7.37;6.53;;;18.10;1.00;;;;;;8339406;28;20249;-77
2022/05/08 07:43:33;;;;;;;12.30;7.33;;;18.00;99.90;;;;;;8325807;28;20179;-82
2022/05/08 07:47:34;;;;;;;11.53;7.07;;;17.80;1.00;;;;;;8340287;28;20210;-77
2022/05/08 07:51:35;;;;;;;6.97;5.50;;;17.80;1.00;;;;;;8326402;28;20270;-82
2022/05/08 07:55:36;;;;;;;6.13;5.50;;;18.20;99.90;;;;;;8331384;28;20300;-81
2022/05/08 07:59:37;;;;;;;7.73;6.40;;;18.70;99.90;;;;;;8326940;28;20225;-82
2022/05/08 08:03:41;;;;;;;7.07;5.43;;;19.00;99.90;;;;;;8336353;28;20213;-79
2022/05/08 08:07:41;;;;;;;10.07;5.33;;;18.90;99.90;;;;;;8325896;28;20197;-78
2022/05/08 08:11:43;;;;;;;5.87;5.07;;;18.90;99.90;;;;;;8322143;28;20441;-77
2022/05/08 08:15:45;;;;;;;5.60;4.83;;;18.80;1.00;;;;;;8329863;28;20186;-81
2022/05/08 08:19:45;;;;;;;6.30;4.40;;;18.70;1.00;;;;;;8331247;28;20539;-78
2022/05/08 08:23:46;;;;;;;4.53;4.13;;;18.70;99.90;;;;;;8327827;28;20186;-82
2022/05/08 08:27:47;;;;;;;7.87;3.67;;;18.90;99.90;;;;;;8318663;28;20241;-78
2022/05/08 08:31:48;;;;;;;8.10;3.87;;;19.30;99.90;;;;;;8342071;28;20186;-78
2022/05/08 08:35:49;;;;;;;4.57;3.80;;;19.50;99.90;;;;;;8326718;28;20214;-78
2022/05/08 08:39:49;;;;;;;6.67;3.10;;;20.10;99.90;;;;;;8325480;28;20273;-79
2022/05/08 08:48:31;;;;;;;5.57;3.60;;;21.00;99.90;;;;;;8342022;28;20608;-77
2022/05/08 08:52:32;;;;;;;4.70;2.70;;;21.20;99.90;;;;;;8331019;28;20208;-78
2022/05/08 08:56:33;;;;;;;6.37;3.20;;;21.40;99.90;;;;;;8320584;28;20181;-78
2022/05/08 09:00:34;;;;;;;5.50;3.40;;;21.60;78.40;;;;;;8332925;28;20275;-78
2022/05/08 09:04:36;;;;;;;5.33;3.20;;;21.40;88.50;;;;;;8326762;28;20190;-78
2022/05/08 09:08:37;;;;;;;6.50;3.60;;;21.10;99.90;;;;;;8334701;28;20183;-78
2022/05/08 09:12:39;;;;;;;4.10;2.43;;;21.00;99.90;;;;;;8340433;28;20267;-78
2022/05/08 09:16:53;;;;;;;5.57;3.57;;;21.30;99.90;;;;;;8327203;28;20182;-82
2022/05/08 09:20:57;;;;;;;3.93;3.10;;;21.60;99.90;;;;;;8334427;28;20190;-79
2022/05/08 09:25:02;;;;;;;5.17;3.10;;;21.80;76.90;;;;;;8336939;28;20209;-82
2022/05/08 09:29:04;;;;;;;4.03;2.60;;;22.00;71.70;;;;;;8335974;28;20178;-78
2022/05/08 09:33:05;;;;;;;4.03;2.63;;;22.20;57.50;;;;;;8332053;28;20264;-82
2022/05/08 09:37:07;;;;;;;5.20;2.67;;;22.80;38.30;;;;;;8336151;28;20214;-82
2022/05/08 09:41:09;;;;;;;5.00;2.70;;;22.30;39.20;;;;;;8326313;28;20209;-81
2022/05/08 09:45:11;;;;;;;3.93;2.87;;;21.80;54.10;;;;;;8335493;28;20204;-78
2022/05/08 09:49:13;;;;;;;3.90;2.63;;;21.80;52.40;;;;;;8332138;28;20185;-79
2022/05/08 09:53:18;;;;;;;2.80;2.57;;;22.10;40.80;;;;;;8350282;28;20182;-79
2022/05/08 09:57:18;;;;;;;6.60;3.43;;;22.10;38.40;;;;;;8333326;28;20309;-78
2022/05/08 10:01:20;;;;;;;4.87;2.93;;;21.40;65.10;;;;;;8354871;28;20243;-79
2022/05/08 10:05:21;;;;;;;3.17;2.70;;;21.40;99.90;;;;;;8326550;28;20216;-79
2022/05/08 10:13:53;;;;;;;3.77;3.00;;;21.50;99.90;;;;;;8343466;28;20193;-77
2022/05/08 10:18:27;;;;;;;4.03;3.13;;;21.90;84.30;;;;;;8319888;28;20192;-78
2022/05/08 10:22:49;;;;;;;3.57;2.90;;;22.90;28.40;;;;;;8343423;28;20178;-80
2022/05/08 10:27:13;;;;;;;4.63;3.43;;;23.10;21.10;;;;;;8331058;28;20220;-82
2022/05/08 10:31:46;;;;;;;5.97;3.00;;;23.00;23.20;;;;;;8322329;28;20189;-78
2022/05/08 10:36:06;;;;;;;5.00;3.07;;;22.60;30.30;;;;;;8331227;28;20182;-79
2022/05/08 10:40:31;;;;;;;6.37;4.23;;;22.60;25.40;;;;;;8324865;28;20202;-79
2022/05/08 10:44:37;;;;;;;6.03;3.80;;;22.70;20.20;;;;;;8318509;28;20195;-79
2022/05/08 10:48:38;;;;;;;4.13;3.10;;;22.80;30.10;;;;;;8327549;28;20202;-78
2022/05/08 10:52:40;;;;;;;4.50;2.77;;;23.00;27.30;;;;;;8323501;28;20297;-81
2022/05/08 10:56:47;;;;;;;2.90;2.60;;;23.10;1.00;;;;;;8333329;28;20194;-78
2022/05/08 11:00:48;;;;;;;3.63;2.60;;;23.10;1.90;;;;;;8320318;28;20209;-78
2022/05/08 11:04:52;;;;;;;5.23;2.47;;;22.50;11.70;;;;;;8334798;28;20182;-79
2022/05/08 11:09:00;;;;;;;2.83;2.40;;;22.40;17.50;;;;;;8326108;28;20178;-78
2022/05/08 11:13:04;;;;;;;3.40;2.60;;;21.80;25.40;;;;;;8327549;28;20182;-79
2022/05/08 11:17:20;;;;;;;6.90;2.30;;;21.20;48.10;;;;;;8330007;28;20231;-79
2022/05/08 11:21:21;;;;;;;2.23;1.90;;;21.10;53.30;;;;;;8318456;28;20277;-79
2022/05/08 11:25:23;;;;;;;4.23;2.30;;;21.10;39.50;;;;;;8327756;28;20217;-78
2022/05/08 11:29:24;;;;;;;3.27;1.70;;;21.00;67.00;;;;;;8325689;28;20174;-78
2022/05/08 11:38:02;;;;;;;3.13;1.90;;;21.30;35.50;;;;;;8344420;28;20196;-79
2022/05/08 11:42:04;;;;;;;2.67;1.93;;;21.00;55.80;;;;;;8330781;28;21048;-79
2022/05/08 11:46:04;;;;;;;2.27;1.80;;;21.30;43.10;;;;;;8325896;28;20210;-83
2022/05/08 11:50:06;;;;;;;3.70;2.00;;;21.00;58.60;;;;;;8328689;28;20512;-78
2022/05/08 11:54:20;;;;;;;2.97;1.97;;;20.40;82.60;;;;;;8322184;28;20197;-81
2022/05/08 11:58:33;;;;;;;3.97;1.80;;;19.90;99.90;;;;;;8322779;28;20191;-82
2022/05/08 12:02:42;;;;;;;2.60;1.90;;;19.70;99.90;;;;;;8328534;28;20181;-77
2022/05/08 12:07:05;;;;;;;2.73;1.70;;;20.00;99.90;;;;;;8323602;28;20214;-78
2022/05/08 12:11:06;;;;;;;2.47;1.73;;;20.30;99.90;;;;;;8321665;28;20240;-79
2022/05/08 12:15:07;;;;;;;2.97;1.80;;;20.70;99.90;;;;;;8323515;28;20178;-77
2022/05/08 12:19:16;;;;;;;2.33;2.10;;;21.00;76.90;;;;;;8330844;28;20185;-78
2022/05/08 12:23:17;;;;;;;3.03;2.10;;;21.60;31.60;;;;;;8323317;28;20179;-77
2022/05/08 12:27:17;;;;;;;1.97;1.77;;;22.10;16.60;;;;;;8322137;28;20205;-77
2022/05/08 12:31:18;;;;;;;3.13;2.50;;;22.60;6.10;;;;;;8323785;28;20183;-79
2022/05/08 12:35:21;;;;;;;4.07;1.60;;;22.40;10.90;;;;;;8309569;28;20214;-81
2022/05/08 12:39:22;;;;;;;3.73;2.30;;;21.90;13.10;;;;;;8322940;28;20206;-83
2022/05/08 12:43:23;;;;;;;2.13;1.93;;;21.40;25.10;;;;;;8334651;28;20214;-81
2022/05/08 12:47:24;;;;;;;2.43;1.50;;;21.10;34.60;;;;;;8337323;28;20213;-80
2022/05/08 12:51:26;;;;;;;2.73;1.80;;;21.10;32.40;;;;;;8325152;28;20567;-77
2022/05/08 12:55:27;;;;;;;2.03;1.77;;;21.40;26.50;;;;;;8327363;28;20317;-77
2022/05/08 12:59:47;;;;;;;3.33;2.00;;;21.70;16.80;;;;;;8328814;28;20190;-78
2022/05/08 13:03:48;;;;;;;1.93;1.73;;;21.70;1.90;;;;;;8324388;28;20388;-79
2022/05/08 13:07:49;;;;;;;3.13;1.60;;;21.40;1.00;;;;;;8332370;28;20209;-79
2022/05/08 13:11:50;;;;;;;2.33;1.80;;;20.70;49.80;;;;;;8332721;28;20193;-82
2022/05/08 13:15:51;;;;;;;2.50;2.30;;;19.80;99.90;;;;;;8324814;28;20216;-79
2022/05/08 13:19:52;;;;;;;6.60;3.67;;;19.90;99.90;;;;;;8339732;28;20612;-78
2022/05/08 13:23:53;;;;;;;5.83;3.10;;;20.30;99.90;;;;;;8322724;28;20275;-78
2022/05/08 13:27:54;;;;;;;2.90;2.40;;;20.60;99.90;;;;;;8324475;28;20245;-79
2022/05/08 13:31:55;;;;;;;4.43;1.77;;;20.90;99.90;;;;;;8322104;28;20181;-82
2022/05/08 13:35:56;;;;;;;3.27;1.93;;;21.10;92.80;;;;;;8327982;28;20185;-77
2022/05/08 13:39:59;;;;;;;5.07;3.47;;;20.90;80.10;;;;;;8319487;28;20206;-78
2022/05/08 13:44:00;;;;;;;2.47;1.93;;;20.80;84.30;;;;;;8319341;28;20189;-77
2022/05/08 13:48:01;;;;;;;3.57;1.90;;;20.80;77.50;;;;;;8338826;28;20260;-79
2022/05/08 13:52:02;;;;;;;3.07;2.50;;;20.90;85.90;;;;;;8320425;28;20194;-77
2022/05/08 13:56:04;;;;;;;2.60;2.10;;;20.60;98.80;;;;;;8319973;28;20190;-79
2022/05/08 14:00:08;;;;;;;2.80;1.80;;;20.30;99.90;;;;;;8333035;28;20189;-79
2022/05/08 14:04:09;;;;;;;2.87;2.20;;;20.10;99.90;;;;;;8325183;28;20191;-78
2022/05/08 14:08:11;;;;;;;3.43;2.17;;;20.00;99.90;;;;;;8348898;28;20300;-82
2022/05/08 14:12:12;;;;;;;3.93;2.93;;;19.80;99.90;;;;;;8328970;28;20194;-78
2022/05/08 14:16:13;;;;;;;3.00;2.10;;;19.70;99.90;;;;;;8332731;28;20282;-79
2022/05/08 14:20:14;;;;;;;5.40;4.40;;;19.60;99.90;;;;;;8327468;28;20186;-82
2022/05/08 14:24:15;;;;;;;6.50;4.40;;;19.60;99.90;;;;;;8322788;28;20264;-78
2022/05/08 14:28:15;;;;;;;4.97;3.97;;;19.80;99.90;;;;;;8327009;28;20355;-81
2022/05/08 14:36:36;;;;;;;5.63;3.80;;;19.80;99.90;;;;;;8345638;28;20205;-78
2022/05/08 14:40:37;;;;;;;3.77;3.20;;;19.80;99.90;;;;;;8342050;28;20213;-77
2022/05/08 14:44:38;;;;;;;5.50;3.90;;;19.90;99.90;;;;;;8321242;28;20497;-77
2022/05/08 14:48:39;;;;;;;5.10;4.13;;;19.90;99.90;;;;;;8334128;28;20245;-79
2022/05/08 14:52:40;;;;;;;5.10;3.93;;;19.90;99.90;;;;;;8333465;28;20545;-79
2022/05/08 14:56:41;;;;;;;4.27;3.20;;;20.10;99.90;;;;;;8334991;28;20186;-78
2022/05/08 15:00:42;;;;;;;2.30;2.10;;;20.40;99.90;;;;;;8324595;28;20209;-78
2022/05/08 15:04:45;;;;;;;2.83;2.27;;;20.30;99.90;;;;;;8330303;28;20194;-80
2022/05/08 15:08:46;;;;;;;4.10;2.83;;;20.30;99.90;;;;;;8336078;28;20214;-82
2022/05/08 15:12:49;;;;;;;2.60;2.30;;;20.20;99.90;;;;;;8330930;28;20265;-79
2022/05/08 15:16:51;;;;;;;2.83;2.30;;;20.10;99.90;;;;;;8329057;28;20239;-79
2022/05/08 15:20:55;;;;;;;4.17;2.40;;;20.20;99.90;;;;;;8324927;28;20193;-79
2022/05/08 15:24:56;;;;;;;3.43;2.43;;;20.30;99.90;;;;;;8326713;28;20225;-79
2022/05/08 15:28:57;;;;;;;4.00;2.10;;;20.50;99.90;;;;;;8333316;28;20178;-79
2022/05/08 15:32:58;;;;;;;3.40;2.30;;;20.40;99.90;;;;;;8327920;28;20181;-78
2022/05/08 15:36:59;;;;;;;2.50;2.27;;;20.40;99.90;;;;;;8328742;28;20186;-77
2022/05/08 15:41:01;;;;;;;2.60;2.13;;;20.30;99.90;;;;;;8332749;28;20206;-79
2022/05/08 15:45:03;;;;;;;8.03;5.33;;;20.10;99.90;;;;;;8323953;28;20202;-81
2022/05/08 15:49:04;;;;;;;11.00;8.27;;;19.90;99.90;;;;;;8332745;28;20253;-79
2022/05/08 15:53:05;;;;;;;18.87;13.43;;;19.60;99.90;;;;;;8329147;28;20180;-81
2022/05/08 15:57:06;;;;;;;10.33;7.30;;;19.60;1.00;;;;;;8328126;28;20233;-78
2022/05/08 16:01:07;;;;;;;4.67;2.63;;;19.70;1.00;;;;;;8336476;28;20182;-79
2022/05/08 16:05:09;;;;;;;3.73;3.33;;;19.60;1.00;;;;;;8328393;28;20190;-78
2022/05/08 16:09:10;;;;;;;6.77;5.37;;;19.70;1.00;;;;;;8328392;28;20174;-77
2022/05/08 16:26:09;;;;;;;7.73;6.70;;;19.50;1.00;;;;;;8345943;28;20241;-78
2022/05/08 16:30:10;;;;;;;6.00;5.40;;;19.50;1.00;;;;;;8324345;28;20178;-78
2022/05/08 16:34:11;;;;;;;10.97;7.07;;;19.40;1.00;;;;;;8323443;28;20177;-81
2022/05/08 16:38:13;;;;;;;10.40;9.33;;;19.20;1.00;;;;;;8326816;28;20280;-78
2022/05/08 16:42:14;;;;;;;3.80;3.40;;;19.10;1.00;;;;;;8324424;28;20236;-79
2022/05/08 16:46:16;;;;;;;11.47;10.40;;;19.00;1.00;;;;;;8320993;28;20210;-78
2022/05/08 16:50:17;;;;;;;17.47;15.67;;;18.90;1.00;;;;;;8320209;28;20187;-79
2022/05/08 16:54:22;;;;;;;20.23;17.23;;;18.80;1.00;;;;;;8328355;28;20193;-78
2022/05/08 16:58:23;;;;;;;5.03;4.27;;;18.70;3.30;;;;;;8327122;28;20185;-82
2022/05/08 17:02:24;;;;;;;4.00;3.07;;;18.50;99.90;;;;;;8325333;28;20182;-78
2022/05/08 17:06:26;;;;;;;4.07;3.30;;;18.40;99.90;;;;;;8329385;28;20282;-79
2022/05/08 17:10:28;;;;;;;5.70;5.20;;;18.20;99.90;;;;;;8328698;28;20277;-77
2022/05/08 17:14:29;;;;;;;5.27;4.77;;;18.10;99.90;;;;;;8334875;28;20252;-81
2022/05/08 17:18:30;;;;;;;3.67;2.93;;;18.10;99.90;;;;;;8329896;28;20269;-83
2022/05/08 17:22:31;;;;;;;3.10;2.80;;;18.00;99.90;;;;;;8326268;28;20305;-82
2022/05/08 17:30:51;;;;;;;3.30;3.00;;;17.90;1.00;;;;;;8343268;28;20271;-79
2022/05/08 17:34:53;;;;;;;3.67;2.87;;;17.90;1.00;;;;;;8327396;28;20217;-77
2022/05/08 17:38:54;;;;;;;7.67;6.77;;;17.90;1.00;;;;;;8325426;28;20209;-78
2022/05/08 17:42:55;;;;;;;5.17;4.00;;;17.90;1.00;;;;;;8335431;28;20312;-79
2022/05/08 17:46:56;;;;;;;6.30;5.23;;;17.90;23.10;;;;;;8345583;28;20256;-80
2022/05/08 17:50:57;;;;;;;5.70;4.63;;;17.90;25.40;;;;;;8337872;28;20296;-80
2022/05/08 17:54:59;;;;;;;5.60;4.83;;;17.90;38.60;;;;;;8331101;28;20178;-78
2022/05/08 17:58:59;;;;;;;5.53;5.03;;;17.90;99.90;;;;;;8327061;28;20186;-79
2022/05/08 18:07:19;;;;;;;6.67;5.90;;;18.40;1.00;;;;;;8346104;28;20232;-81
2022/05/08 18:11:20;;;;;;;5.73;4.63;;;18.40;1.00;;;;;;8338500;28;20265;-78
2022/05/08 18:15:21;;;;;;;4.27;3.50;;;18.40;1.00;;;;;;8340914;28;20186;-76
2022/05/08 18:19:22;;;;;;;5.13;3.73;;;18.20;1.00;;;;;;8329656;28;20225;-76
2022/05/08 18:23:25;;;;;;;4.33;3.33;;;17.80;1.00;;;;;;8341195;28;20185;-78
2022/05/08 18:27:25;;;;;;;3.50;3.20;;;17.50;92.20;;;;;;8311648;28;20308;-76
2022/05/08 18:31:26;;;;;;;5.73;4.10;;;17.10;99.90;;;;;;8331722;28;20233;-79
2022/05/08 18:35:28;;;;;;;6.10;4.53;;;16.80;1.00;;;;;;8336913;28;20254;-77
2022/05/08 18:39:31;;;;;;;4.83;3.97;;;16.40;99.90;;;;;;8327358;28;20209;-78
2022/05/08 18:43:33;;;;;;;3.47;3.17;;;16.00;99.90;;;;;;8347371;28;20194;-78
2022/05/08 18:47:35;;;;;;;4.17;3.77;;;15.60;1.00;;;;;;8325405;28;20205;-79
2022/05/08 18:51:36;;;;;;;4.67;4.27;;;15.40;33.30;;;;;;8333745;28;20177;-83
2022/05/08 18:55:36;;;;;;;5.37;3.77;;;15.10;99.90;;;;;;8336075;28;20266;-77
2022/05/08 18:59:38;;;;;;;4.97;3.80;;;14.80;99.90;;;;;;8343167;28;20208;-78
2022/05/08 19:03:39;;;;;;;4.07;3.63;;;14.60;1.00;;;;;;8347387;28;20632;-80
2022/05/08 19:07:40;;;;;;;4.90;3.87;;;14.30;75.90;;;;;;8331777;28;20206;-79
2022/05/08 19:11:41;;;;;;;4.63;4.17;;;14.20;99.90;;;;;;8338681;28;20269;-79
2022/05/08 19:15:41;;;;;;;4.03;3.63;;;14.00;1.00;;;;;;8331157;28;20201;-78
2022/05/08 19:19:45;;;;;;;4.50;3.87;;;13.90;99.90;;;;;;8329833;28;20190;-79
2022/05/08 19:23:46;;;;;;;4.30;3.83;;;13.90;99.90;;;;;;8327897;28;20196;-79
2022/05/08 19:27:47;;;;;;;4.23;3.83;;;13.80;99.90;;;;;;8324660;28;20217;-77
2022/05/08 19:40:28;;;;;;;4.30;3.90;;;13.40;1.00;;;;;;8341261;28;20217;-80
2022/05/08 19:44:34;;;;;;;4.47;4.03;;;13.20;93.60;;;;;;8323965;28;20187;-80
2022/05/08 19:48:36;;;;;;;4.20;3.73;;;13.10;1.00;;;;;;8329252;28;20214;-79
2022/05/08 19:52:37;;;;;;;5.63;4.03;;;12.90;99.90;;;;;;8336870;28;20204;-79
2022/05/08 19:56:38;;;;;;;5.50;4.23;;;12.80;1.00;;;;;;8332158;28;20182;-77
2022/05/08 20:00:38;;;;;;;5.20;3.90;;;12.90;99.90;;;;;;8332977;28;20192;-79
2022/05/08 20:04:39;;;;;;;5.10;4.13;;;12.80;99.90;;;;;;8331426;28;20429;-77
2022/05/08 20:08:41;;;;;;;5.57;4.27;;;12.80;1.00;;;;;;8335185;28;20217;-78
2022/05/08 20:12:42;;;;;;;4.93;4.40;;;12.80;77.70;;;;;;8322869;28;20213;-79
2022/05/08 20:16:43;;;;;;;7.10;5.20;;;12.70;1.00;;;;;;8326555;28;20193;-80
2022/05/08 20:25:04;;;;;;;6.67;5.67;;;12.50;99.90;;;;;;8347967;28;20239;-79
2022/05/08 20:29:05;;;;;;;5.30;4.73;;;12.30;99.90;;;;;;8326782;28;20197;-78
2022/05/08 20:33:06;;;;;;;4.90;4.10;;;12.20;99.90;;;;;;8320482;28;20276;-78
2022/05/08 20:37:09;;;;;;;6.47;4.67;;;12.00;99.90;;;;;;8325043;28;20197;-80
2022/05/08 20:41:10;;;;;;;6.13;5.07;;;11.90;99.90;;;;;;8331117;28;20306;-79
2022/05/08 20:45:12;;;;;;;5.17;4.63;;;11.80;99.90;;;;;;8333405;28;20494;-79
2022/05/08 20:49:13;;;;;;;4.77;4.30;;;11.70;99.90;;;;;;8326007;28;20413;-79
2022/05/08 20:53:13;;;;;;;5.17;4.43;;;11.60;99.90;;;;;;8328937;28;20268;-79
2022/05/08 20:57:14;;;;;;;5.50;4.60;;;11.40;99.90;;;;;;8325534;28;20197;-79
2022/05/08 21:01:16;;;;;;;5.80;4.93;;;11.20;99.90;;;;;;8338674;28;20203;-79
2022/05/08 21:09:36;;;;;;;5.30;4.80;;;11.00;99.90;;;;;;8343303;28;20221;-79
2022/05/08 21:13:37;;;;;;;5.57;4.97;;;10.80;99.90;;;;;;8325305;28;20183;-80
2022/05/08 21:17:38;;;;;;;5.53;5.03;;;10.60;99.90;;;;;;8326531;28;20190;-80
2022/05/08 21:21:39;;;;;;;5.27;4.70;;;10.50;99.90;;;;;;8336698;28;20271;-79
2022/05/08 21:25:40;;;;;;;6.93;5.37;;;10.40;99.90;;;;;;8319649;28;20334;-80
2022/05/08 21:29:41;;;;;;;7.77;6.27;;;10.40;99.90;;;;;;8331491;28;20183;-80
2022/05/08 21:33:42;;;;;;;8.20;5.67;;;10.40;99.90;;;;;;8336773;28;20190;-79
2022/05/08 21:37:43;;;;;;;7.30;5.87;;;10.40;99.90;;;;;;8328379;28;20217;-78
2022/05/08 21:41:44;;;;;;;6.60;5.97;;;10.40;99.90;;;;;;8329128;28;20264;-79
2022/05/08 21:45:44;;;;;;;7.53;5.60;;;10.40;99.90;;;;;;8321106;28;20218;-79
2022/05/08 21:49:45;;;;;;;5.40;4.77;;;10.40;99.90;;;;;;8349625;28;20310;-78
2022/05/08 21:53:46;;;;;;;6.60;5.00;;;10.40;99.90;;;;;;8322369;28;20182;-80
2022/05/08 21:57:47;;;;;;;6.20;4.90;;;10.40;99.90;;;;;;8323148;28;20202;-79
2022/05/08 22:01:48;;;;;;;5.13;4.63;;;10.30;99.90;;;;;;8317501;28;20186;-79
2022/05/08 22:05:49;;;;;;;5.57;4.97;;;10.40;99.90;;;;;;8329282;28;20208;-80
2022/05/08 22:09:49;;;;;;;7.77;5.37;;;10.40;99.90;;;;;;8324035;28;20213;-79
2022/05/08 22:13:50;;;;;;;6.27;5.60;;;10.40;99.90;;;;;;8321609;28;20269;-79